createdAt,value
2022-08-23T00:01:56.046Z,95396.50
2022-08-23T00:05:08.791Z,95388.41
2022-08-23T00:08:11.425Z,95390.56
2022-08-23T00:11:24.113Z,95384.34
2022-08-23T00:14:27.420Z,95385.97
2022-08-23T00:17:34.457Z,95386.78
2022-08-23T00:20:38.067Z,95384.81
2022-08-23T00:23:39.809Z,95384.75
2022-08-23T00:26:52.134Z,95374.69
2022-08-23T00:29:55.295Z,95377.63
2022-08-23T00:32:58.037Z,95373.53
2022-08-23T00:36:01.215Z,95377.50
2022-08-23T00:39:02.938Z,95370.31
2022-08-23T00:42:06.512Z,95380.16
2022-08-23T00:45:08.880Z,95376.78
2022-08-23T00:48:11.508Z,95379.94
2022-08-23T00:51:17.052Z,95375.03
2022-08-23T00:54:19.835Z,95377.09
2022-08-23T00:57:21.572Z,95386.91
2022-08-23T01:00:23.860Z,95369.94
2022-08-23T01:03:27.992Z,95374.53
2022-08-23T01:06:33.287Z,95375.28
2022-08-23T01:09:36.210Z,95372.16
2022-08-23T01:12:41.211Z,95370.44
2022-08-23T01:15:45.955Z,95376.25
2022-08-23T01:18:48.169Z,95366.53
2022-08-23T01:21:54.260Z,95377.53
2022-08-23T01:25:06.567Z,95379.81
2022-08-23T01:28:10.423Z,95365.25
2022-08-23T01:31:13.841Z,95374.19
2022-08-23T01:34:15.506Z,95370.78
2022-08-23T01:37:19.262Z,95368.91
2022-08-23T01:40:22.378Z,95372.34
2022-08-23T01:43:24.146Z,95360.97
2022-08-23T01:46:26.552Z,95367.53
2022-08-23T01:49:28.224Z,95370.78
2022-08-23T01:52:29.945Z,95373.44
2022-08-23T01:55:33.333Z,95376.50
2022-08-23T01:58:35.779Z,95375.81
2022-08-23T02:01:38.041Z,95375.22
2022-08-23T02:04:39.778Z,95376.06
2022-08-23T02:07:41.496Z,95376.81
2022-08-23T02:10:44.710Z,95372.16
2022-08-23T02:13:46.370Z,95374.19
2022-08-23T02:17:02.820Z,95378.81
2022-08-23T02:20:05.755Z,95372.16
2022-08-23T02:23:07.446Z,95373.44
2022-08-23T02:26:10.498Z,95375.91
2022-08-23T02:29:12.744Z,95366.53
2022-08-23T02:32:15.234Z,95376.34
2022-08-23T02:35:17.042Z,95385.53
2022-08-23T02:38:18.758Z,95384.94
2022-08-23T02:41:22.227Z,95388.63
2022-08-23T02:44:24.025Z,95384.75
2022-08-23T02:47:25.847Z,95382.84
2022-08-23T02:50:27.536Z,95383.50
2022-08-23T02:53:29.798Z,95384.91
2022-08-23T02:56:33.071Z,95385.09
2022-08-23T02:59:34.772Z,95380.50
2022-08-23T03:02:36.573Z,95388.34
2022-08-23T03:05:38.300Z,95385.03
2022-08-23T03:08:40.034Z,95387.66
2022-08-23T03:11:45.446Z,95395.28
2022-08-23T03:14:47.308Z,95394.72
2022-08-23T03:17:49.304Z,95388.56
2022-08-23T03:20:50.992Z,95395.66
2022-08-23T03:23:52.702Z,95388.06
2022-08-23T03:26:55.809Z,95397.34
2022-08-23T03:29:57.820Z,95402.16
2022-08-23T03:32:59.724Z,95398.22
2022-08-23T03:36:02.071Z,95395.28
2022-08-23T03:39:04.557Z,95398.22
2022-08-23T03:42:07.671Z,95402.31
2022-08-23T03:45:09.793Z,95403.47
2022-08-23T03:48:11.515Z,95407.53
2022-08-23T03:51:13.163Z,95415.97
2022-08-23T03:54:14.827Z,95408.56
2022-08-23T03:57:17.844Z,95415.31
2022-08-23T04:00:20.665Z,95410.44
2022-08-23T04:03:22.500Z,95407.19
2022-08-23T04:06:24.170Z,95420.66
2022-08-23T04:09:25.874Z,95417.47
2022-08-23T04:12:28.934Z,95422.81
2022-08-23T04:15:30.577Z,95419.66
2022-08-23T04:18:33.473Z,95420.38
2022-08-23T04:21:35.761Z,95420.28
2022-08-23T04:24:37.717Z,95429.56
2022-08-23T04:27:40.731Z,95423.28
2022-08-23T04:30:42.459Z,95430.28
2022-08-23T04:33:45.733Z,95427.63
2022-08-23T04:36:55.315Z,95425.31
2022-08-23T04:39:57.412Z,95427.19
2022-08-23T04:43:00.751Z,95427.56
2022-08-23T04:46:02.479Z,95434.28
2022-08-23T04:49:04.251Z,95430.59
2022-08-23T04:52:05.987Z,95429.84
2022-08-23T04:55:07.958Z,95436.56
2022-08-23T04:58:11.077Z,95433.09
2022-08-23T05:01:12.769Z,95434.19
2022-08-23T05:04:14.521Z,95439.22
2022-08-23T05:07:16.231Z,95436.84
2022-08-23T05:10:18.173Z,95438.88
2022-08-23T05:13:21.224Z,95441.19
2022-08-23T05:16:22.997Z,95443.91
2022-08-23T05:19:24.696Z,95449.84
2022-08-23T05:22:26.446Z,95450.72
2022-08-23T05:25:28.556Z,95451.84
2022-08-23T05:28:33.564Z,95446.78
2022-08-23T05:31:35.267Z,95447.13
2022-08-23T05:34:37.062Z,95450.97
2022-08-23T05:37:38.688Z,95456.84
2022-08-23T05:40:40.425Z,95457.63
2022-08-23T05:43:43.455Z,95459.09
2022-08-23T05:46:45.143Z,95462.28
2022-08-23T05:49:46.984Z,95461.78
2022-08-23T05:52:51.111Z,95465.69
2022-08-23T05:55:53.041Z,95465.41
2022-08-23T05:58:59.649Z,95462.69
2022-08-23T06:02:01.755Z,95482.50
2022-08-23T06:05:03.669Z,95476.63
2022-08-23T06:08:05.414Z,95478.56
2022-08-23T06:11:08.593Z,95481.84
2022-08-23T06:14:11.833Z,95475.69
2022-08-23T06:17:13.573Z,95480.31
2022-08-23T06:20:15.477Z,95475.63
2022-08-23T06:23:17.184Z,95482.50
2022-08-23T06:26:20.168Z,95478.81
2022-08-23T06:29:23.219Z,95475.13
2022-08-23T06:32:24.956Z,95476.47
2022-08-23T06:35:38.985Z,95491.06
2022-08-23T06:38:41.797Z,95489.13
2022-08-23T06:41:44.563Z,95488.63
2022-08-23T06:44:47.627Z,95495.47
2022-08-23T06:47:49.249Z,95504.00
2022-08-23T06:50:51.003Z,95501.06
2022-08-23T06:53:53.257Z,95508.06
2022-08-23T06:56:55.299Z,95514.13
2022-08-23T06:59:58.411Z,95516.75
2022-08-23T07:03:00.471Z,95514.56
2022-08-23T07:06:02.284Z,95524.91
2022-08-23T07:09:04.867Z,95524.41
2022-08-23T07:12:06.788Z,95533.72
2022-08-23T07:15:10.665Z,95534.00
2022-08-23T07:18:13.413Z,95527.63
2022-08-23T07:21:15.393Z,95527.91
2022-08-23T07:24:17.789Z,95533.72
2022-08-23T07:27:19.589Z,95537.78
2022-08-23T07:30:22.734Z,95538.25
2022-08-23T07:33:24.425Z,95540.63
2022-08-23T07:36:27.958Z,95538.31
2022-08-23T07:39:29.793Z,95539.91
2022-08-23T07:42:31.453Z,95537.53
2022-08-23T07:45:35.315Z,95552.31
2022-08-23T07:48:53.405Z,95552.75
2022-08-23T07:51:56.809Z,95552.63
2022-08-23T07:54:58.545Z,95551.69
2022-08-23T07:58:00.341Z,95558.69
2022-08-23T08:01:10.027Z,95559.81
2022-08-23T08:04:12.521Z,95556.09
2022-08-23T08:07:21.566Z,95562.59
2022-08-23T08:10:23.376Z,95567.00
2022-08-23T08:13:25.027Z,95565.16
2022-08-23T08:16:29.330Z,95574.19
2022-08-23T08:19:31.110Z,95582.97
2022-08-23T08:22:32.877Z,95578.63
2022-08-23T08:25:34.581Z,95578.06
2022-08-23T08:28:36.743Z,95581.91
2022-08-23T08:31:40.062Z,95580.97
2022-08-23T08:34:42.051Z,95583.09
2022-08-23T08:37:43.940Z,95582.69
2022-08-23T08:40:46.324Z,95583.34
2022-08-23T08:43:56.092Z,95589.34
2022-08-23T08:46:59.241Z,95588.22
2022-08-23T08:50:02.751Z,95589.16
2022-08-23T08:53:09.965Z,95590.22
2022-08-23T08:56:16.476Z,95597.97
2022-08-23T08:59:21.150Z,95599.94
2022-08-23T09:02:32.517Z,95595.59
2022-08-23T09:05:49.364Z,95604.97
2022-08-23T09:09:00.836Z,95600.69
2022-08-23T09:12:10.827Z,95606.69
2022-08-23T09:15:15.436Z,95601.56
2022-08-23T09:18:18.536Z,95600.94
2022-08-23T09:21:20.677Z,95600.94
2022-08-23T09:24:22.464Z,95597.88
2022-08-23T09:27:24.095Z,95614.09
2022-08-23T09:30:45.138Z,95603.84
2022-08-23T09:33:48.259Z,95606.41
2022-08-23T09:36:52.153Z,95600.44
2022-08-23T09:40:12.746Z,95606.75
2022-08-23T09:43:16.543Z,95606.34
2022-08-23T09:46:25.763Z,95612.22
2022-08-23T09:49:30.159Z,95618.03
2022-08-23T09:52:34.014Z,95605.06
2022-08-23T09:55:36.853Z,95609.28
2022-08-23T09:58:39.519Z,95606.88
2022-08-23T10:01:47.271Z,95598.03
2022-08-23T10:04:57.541Z,95605.38
2022-08-23T10:08:00.430Z,95607.94
2022-08-23T10:11:05.665Z,95596.66
2022-08-23T10:14:10.418Z,95593.63
2022-08-23T10:17:18.055Z,95601.50
2022-08-23T10:20:27.675Z,95599.34
2022-08-23T10:23:36.806Z,95593.75
2022-08-23T10:26:44.035Z,95600.13
2022-08-23T10:29:46.807Z,95597.81
2022-08-23T10:32:53.336Z,95592.16
2022-08-23T10:36:00.033Z,95592.03
2022-08-23T10:39:03.491Z,95590.06
2022-08-23T10:42:07.944Z,95587.25
2022-08-23T10:45:15.264Z,95589.00
2022-08-23T10:48:21.284Z,95580.81
2022-08-23T10:51:31.870Z,95580.34
2022-08-23T10:54:37.404Z,95578.19
2022-08-23T10:57:41.058Z,95580.47
2022-08-23T11:00:43.095Z,95575.41
2022-08-23T11:03:47.099Z,95582.75
2022-08-23T11:06:52.075Z,95581.53
2022-08-23T11:09:56.375Z,95583.19
2022-08-23T11:12:59.136Z,95579.47
2022-08-23T11:16:05.188Z,95568.81
2022-08-23T11:19:11.543Z,95582.38
2022-08-23T11:22:19.467Z,95572.94
2022-08-23T11:25:35.961Z,95575.53
2022-08-23T11:28:42.329Z,95572.03
2022-08-23T11:31:45.963Z,95573.81
2022-08-23T11:34:49.835Z,95567.94
2022-08-23T11:37:54.901Z,95571.03
2022-08-23T11:40:58.344Z,95575.69
2022-08-23T11:44:19.773Z,95578.84
2022-08-23T11:47:27.926Z,95572.00
2022-08-23T11:50:34.083Z,95564.91
2022-08-23T11:53:41.268Z,95568.47
2022-08-23T11:56:52.225Z,95571.88
2022-08-23T12:00:01.612Z,95573.88
2022-08-23T12:03:06.498Z,95576.91
2022-08-23T12:06:12.581Z,95577.41
2022-08-23T12:09:38.042Z,95581.38
2022-08-23T12:12:43.921Z,95586.53
2022-08-23T12:16:06.768Z,95584.75
2022-08-23T12:19:30.188Z,95583.09
2022-08-23T12:22:52.370Z,95583.03
2022-08-23T12:26:05.993Z,95578.94
2022-08-23T12:29:12.641Z,95582.38
2022-08-23T12:32:18.529Z,95582.84
2022-08-23T12:35:27.614Z,95584.31
2022-08-23T12:38:36.391Z,95580.44
2022-08-23T12:41:50.316Z,95589.94
2022-08-23T12:44:59.878Z,95584.31
2022-08-23T12:48:02.488Z,95580.78
2022-08-23T12:51:07.291Z,95582.13
2022-08-23T12:54:12.750Z,95581.06
2022-08-23T12:57:19.472Z,95578.75
2022-08-23T13:00:23.015Z,95575.88
2022-08-23T13:03:28.376Z,95584.94
2022-08-23T13:06:31.722Z,95579.25
2022-08-23T13:09:34.617Z,95583.84
2022-08-23T13:12:39.770Z,95576.88
2022-08-23T13:15:46.540Z,95570.09
2022-08-23T13:18:48.404Z,95574.16
2022-08-23T13:22:04.869Z,95592.03
2022-08-23T13:25:28.020Z,95581.22
2022-08-23T13:28:31.919Z,95575.13
2022-08-23T13:31:50.092Z,95577.09
2022-08-23T13:34:51.725Z,95576.44
2022-08-23T13:37:55.480Z,95586.97
2022-08-23T13:40:59.524Z,95572.81
2022-08-23T13:44:05.498Z,95576.66
2022-08-23T13:47:08.250Z,95582.03
2022-08-23T13:50:14.511Z,95572.56
2022-08-23T13:53:16.636Z,95574.25
2022-08-23T13:56:18.463Z,95575.00
2022-08-23T13:59:23.991Z,95569.50
2022-08-23T14:02:32.919Z,95564.34
2022-08-23T14:05:34.640Z,95566.31
2022-08-23T14:08:36.319Z,95556.22
2022-08-23T14:11:38.163Z,95564.41
2022-08-23T14:14:41.269Z,95562.59
2022-08-23T14:17:48.248Z,95559.81
2022-08-23T14:20:51.384Z,95562.00
2022-08-23T14:23:53.247Z,95571.72
2022-08-23T14:26:55.366Z,95559.97
2022-08-23T14:29:58.424Z,95562.84
2022-08-23T14:33:00.421Z,95563.28
2022-08-23T14:36:02.508Z,95565.00
2022-08-23T14:39:04.245Z,95567.31
2022-08-23T14:42:06.330Z,95570.69
2022-08-23T14:45:10.045Z,95571.66
2022-08-23T14:48:11.778Z,95570.25
2022-08-23T14:51:18.540Z,95566.72
2022-08-23T14:54:21.582Z,95579.22
2022-08-23T14:57:23.294Z,95573.91
2022-08-23T15:00:26.403Z,95578.09
2022-08-23T15:03:28.087Z,95576.84
2022-08-23T15:06:29.970Z,95581.19
2022-08-23T15:09:32.190Z,95574.59
2022-08-23T15:15:57.517Z,95587.06
2022-08-23T15:18:59.314Z,95589.59
2022-08-23T15:22:06.563Z,95586.53
2022-08-23T15:25:23.725Z,95590.81
2022-08-23T15:28:25.458Z,95595.63
2022-08-23T15:31:28.677Z,95606.53
2022-08-23T15:34:33.299Z,95594.16
2022-08-23T15:37:37.097Z,95594.53
2022-08-23T15:40:39.832Z,95594.59
2022-08-23T15:43:42.164Z,95592.38
2022-08-23T15:46:47.952Z,95600.28
2022-08-23T15:49:49.661Z,95594.91
2022-08-23T15:52:51.361Z,95598.06
2022-08-23T15:55:53.375Z,95604.28
2022-08-23T15:58:55.528Z,95604.84
2022-08-23T16:01:58.765Z,95605.88
2022-08-23T16:05:00.653Z,95611.41
2022-08-23T16:08:02.376Z,95611.72
2022-08-23T16:11:04.260Z,95618.94
2022-08-23T16:14:05.946Z,95615.66
2022-08-23T16:17:09.486Z,95612.13
2022-08-23T16:20:11.348Z,95605.94
2022-08-23T16:23:13.194Z,95606.88
2022-08-23T16:26:16.076Z,95610.97
2022-08-23T16:29:18.733Z,95605.69
2022-08-23T16:32:21.817Z,95607.41
2022-08-23T16:35:23.748Z,95607.41
2022-08-23T16:38:25.496Z,95620.56
2022-08-23T16:41:27.187Z,95615.06
2022-08-23T16:44:28.826Z,95614.31
2022-08-23T16:47:32.302Z,95615.00
2022-08-23T16:50:33.942Z,95611.38
2022-08-23T16:53:35.678Z,95615.56
2022-08-23T16:56:37.985Z,95617.91
2022-08-23T16:59:40.629Z,95617.00
2022-08-23T17:02:44.277Z,95622.06
2022-08-23T17:05:46.000Z,95626.34
2022-08-23T17:08:47.781Z,95629.84
2022-08-23T17:11:50.395Z,95629.50
2022-08-23T17:14:52.136Z,95623.25
2022-08-23T17:17:55.244Z,95624.03
2022-08-23T17:20:57.216Z,95619.66
2022-08-23T17:24:00.028Z,95619.44
2022-08-23T17:27:01.768Z,95622.19
2022-08-23T17:30:03.829Z,95630.50
2022-08-23T17:33:07.382Z,95626.00
2022-08-23T17:36:20.137Z,95630.63
2022-08-23T17:39:23.032Z,95628.75
2022-08-23T17:42:24.784Z,95629.69
2022-08-23T17:45:27.120Z,95635.25
2022-08-23T17:48:30.257Z,95636.34
2022-08-23T17:51:32.117Z,95645.53
2022-08-23T17:54:33.878Z,95642.28
2022-08-23T17:57:36.493Z,95648.41
2022-08-23T18:00:39.752Z,95650.28
2022-08-23T18:03:42.923Z,95642.69
2022-08-23T18:06:46.003Z,95659.38
2022-08-23T18:09:48.755Z,95664.84
2022-08-23T18:12:50.823Z,95665.94
2022-08-23T18:15:53.103Z,95664.53
2022-08-23T18:18:57.064Z,95667.06
2022-08-23T18:22:02.294Z,95673.22
2022-08-23T18:25:05.031Z,95677.16
2022-08-23T18:28:07.061Z,95672.66
2022-08-23T18:31:08.869Z,95676.06
2022-08-23T18:34:12.741Z,95685.50
2022-08-23T18:37:14.884Z,95682.06
2022-08-23T18:40:16.889Z,95692.28
2022-08-23T18:43:20.203Z,95693.38
2022-08-23T18:46:23.145Z,95697.78
2022-08-23T18:49:26.447Z,95706.75
2022-08-23T18:52:29.244Z,95701.94
2022-08-23T18:55:32.751Z,95711.91
2022-08-23T18:58:34.675Z,95713.13
2022-08-23T19:01:37.946Z,95720.16
2022-08-23T19:04:41.460Z,95719.47
2022-08-23T19:07:43.731Z,95714.75
2022-08-23T19:10:46.399Z,95724.84
2022-08-23T19:13:48.687Z,95728.38
2022-08-23T19:16:51.075Z,95736.38
2022-08-23T19:19:56.168Z,95731.00
2022-08-23T19:22:58.823Z,95731.06
2022-08-23T19:26:01.716Z,95728.44
2022-08-23T19:29:06.235Z,95728.88
2022-08-23T19:32:09.261Z,95731.16
2022-08-23T19:35:13.595Z,95735.34
2022-08-23T19:38:16.682Z,95739.28
2022-08-23T19:41:19.869Z,95736.66
2022-08-23T19:44:22.626Z,95742.91
2022-08-23T19:47:28.598Z,95743.31
2022-08-23T19:50:33.147Z,95738.78
2022-08-23T19:53:35.208Z,95749.53
2022-08-23T19:56:38.356Z,95754.22
2022-08-23T19:59:40.514Z,95760.41
2022-08-23T20:02:42.588Z,95753.28
2022-08-23T20:05:46.089Z,95758.22
2022-08-23T20:08:48.151Z,95756.66
2022-08-23T20:11:50.170Z,95759.00
2022-08-23T20:14:52.192Z,95753.50
2022-08-23T20:17:54.202Z,95758.06
2022-08-23T20:20:58.001Z,95761.25
2022-08-23T20:23:59.970Z,95757.84
2022-08-23T20:27:01.923Z,95768.38
2022-08-23T20:30:04.614Z,95766.38
2022-08-23T20:33:06.566Z,95767.75
2022-08-23T20:36:09.808Z,95771.22
2022-08-23T20:39:11.891Z,95769.13
2022-08-23T20:42:13.592Z,95769.91
2022-08-23T20:45:15.264Z,95777.00
2022-08-23T20:48:16.936Z,95775.47
2022-08-23T20:51:20.450Z,95782.16
2022-08-23T20:54:22.159Z,95777.00
2022-08-23T20:57:23.885Z,95781.09
2022-08-23T21:00:30.226Z,95774.78
2022-08-23T21:03:32.080Z,95771.59
2022-08-23T21:06:38.424Z,95768.84
2022-08-23T21:09:40.243Z,95769.31
2022-08-23T21:12:41.895Z,95771.91
2022-08-23T21:15:43.835Z,95779.31
2022-08-23T21:18:45.659Z,95765.47
2022-08-23T21:21:48.764Z,95773.69
2022-08-23T21:24:50.421Z,95768.19
2022-08-23T21:27:52.109Z,95764.44
2022-08-23T21:30:53.829Z,95765.63
2022-08-23T21:33:55.569Z,95765.63
2022-08-23T21:36:58.626Z,95760.53
2022-08-23T21:40:00.355Z,95763.28
2022-08-23T21:43:02.313Z,95757.56
2022-08-23T21:46:04.522Z,95747.84
2022-08-23T21:49:06.333Z,95747.31
2022-08-23T21:52:09.447Z,95749.00
2022-08-23T21:55:11.436Z,95750.53
2022-08-23T21:58:15.066Z,95753.28
2022-08-23T22:01:16.914Z,95745.91
2022-08-23T22:04:18.605Z,95758.75
2022-08-23T22:07:21.860Z,95752.53
2022-08-23T22:10:23.673Z,95749.00
2022-08-23T22:13:25.776Z,95751.94
2022-08-23T22:16:27.475Z,95754.47
2022-08-23T22:19:29.204Z,95751.19
2022-08-23T22:22:32.290Z,95752.13
2022-08-23T22:25:34.007Z,95762.03
2022-08-23T22:28:35.854Z,95762.38
2022-08-23T22:31:37.661Z,95762.91
2022-08-23T22:34:39.386Z,95751.09
2022-08-23T22:38:03.643Z,95748.91
2022-08-23T22:41:05.035Z,95758.47
2022-08-23T22:44:06.936Z,95756.75
2022-08-23T22:47:08.727Z,95747.16
2022-08-23T22:50:10.415Z,95751.63
2022-08-23T22:53:13.659Z,95757.84
2022-08-23T22:56:16.164Z,95755.28
2022-08-23T22:59:18.730Z,95753.50
2022-08-23T23:02:20.405Z,95751.00
2022-08-23T23:05:22.164Z,95749.38
2022-08-23T23:08:25.290Z,95744.59
2022-08-23T23:11:27.714Z,95749.63
2022-08-23T23:14:29.660Z,95746.56
2022-08-23T23:17:31.357Z,95743.84
2022-08-23T23:20:33.018Z,95749.56
2022-08-23T23:23:36.664Z,95744.09
2022-08-23T23:26:38.686Z,95749.22
2022-08-23T23:29:40.982Z,95748.88
2022-08-23T23:32:43.168Z,95742.31
2022-08-23T23:35:45.350Z,95740.84
2022-08-23T23:38:48.396Z,95742.03
2022-08-23T23:41:50.256Z,95735.22
2022-08-23T23:44:51.904Z,95733.59
2022-08-23T23:47:53.656Z,95733.50
2022-08-23T23:50:55.299Z,95730.75
2022-08-23T23:53:59.158Z,95732.03
2022-08-23T23:57:02.904Z,95724.44
